Rosenberg's Hourly Summary for Friday, April 14, 2017
Hour Temp
(f)
RH
(%)
Solar Rad.
(MJ/m2)
Rainfall
(in)
Wind
(mph)
4/14/2017 12:00 AM 61 92 0 0 0.57
4/14/2017 1:00 AM 61 92 0 0 0.57
4/14/2017 2:00 AM 60 93 0 0 0.69
4/14/2017 3:00 AM 60 93 0.01 0 2.15
4/14/2017 4:00 AM 61 94 0.01 0 1.24
4/14/2017 5:00 AM 60 94 0.01 0 0.57
4/14/2017 6:00 AM 60 93 0.22 0 1.04
4/14/2017 7:00 AM 64 88 0.92 0 5.79
4/14/2017 8:00 AM 68 83 1.11 0 8.23
4/14/2017 9:00 AM 70 76 1.5 0 6.65
4/14/2017 10:00 AM 74 61 1.93 0 6.53
4/14/2017 11:00 AM 75 60 2.35 0 7.98
4/14/2017 12:00 PM 71 75 0.78 0.03 7.22
4/14/2017 1:00 PM 69 82 0.29 0.09 4.23
4/14/2017 2:00 PM 68 87 0.57 0.07 5.24
4/14/2017 3:00 PM 72 73 0.95 0 6.09
4/14/2017 4:00 PM 74 63 1.01 0.01 9.7
4/14/2017 5:00 PM 74 63 0.61 0 8.3
4/14/2017 6:00 PM 72 70 0.12 0 5.84
4/14/2017 7:00 PM 69 77 0 0 4.9
4/14/2017 8:00 PM 67 83 0 0 4.94
4/14/2017 9:00 PM 65 87 0 0 2.73
4/14/2017 10:00 PM 64 90 0 0 0.57
4/14/2017 11:00 PM 63 91 0 0 0.57
Data Summary 66 81 12.39 0.20 4.26